createdAt,value
2018-02-23T00:00:02.160Z,54.96
2018-02-23T00:01:02.137Z,55.06
2018-02-23T00:02:02.106Z,54.77
2018-02-23T00:03:09.074Z,54.96
2018-02-23T00:04:02.054Z,55.15
2018-02-23T00:05:02.023Z,55.15
2018-02-23T00:06:01.997Z,54.96
2018-02-23T00:07:01.973Z,55.41
2018-02-23T00:08:01.940Z,55.31
2018-02-23T00:09:01.913Z,55.69
2018-02-23T00:10:01.886Z,55.69
2018-02-23T00:11:01.861Z,55.72
2018-02-23T00:12:01.830Z,55.91
2018-02-23T00:13:01.801Z,56.20
2018-02-23T00:14:01.783Z,56.20
2018-02-23T00:15:01.747Z,55.72
2018-02-23T00:16:01.726Z,55.88
2018-02-23T00:17:01.701Z,56.20
2018-02-23T00:18:01.663Z,56.48
2018-02-23T00:19:01.645Z,56.45
2018-02-23T00:20:01.616Z,56.48
2018-02-23T00:21:01.579Z,55.82
2018-02-23T00:22:01.579Z,56.01
2018-02-23T00:23:01.526Z,55.63
2018-02-23T00:24:01.496Z,55.98
2018-02-23T00:25:01.489Z,55.88
2018-02-23T00:26:01.442Z,55.98
2018-02-23T00:27:01.431Z,56.48
2018-02-23T00:28:01.409Z,56.01
2018-02-23T00:29:01.359Z,56.26
2018-02-23T00:30:01.338Z,56.26
2018-02-23T00:31:01.313Z,56.45
2018-02-23T00:32:01.276Z,56.63
2018-02-23T00:33:01.256Z,56.16
2018-02-23T00:34:01.222Z,56.54
2018-02-23T00:35:01.191Z,56.16
2018-02-23T00:36:01.177Z,56.16
2018-02-23T00:37:01.137Z,56.45
2018-02-23T00:38:01.114Z,56.63
2018-02-23T00:39:01.079Z,56.63
2018-02-23T00:40:01.052Z,57.20
2018-02-23T00:41:01.029Z,56.92
2018-02-23T00:42:00.996Z,56.73
2018-02-23T00:43:00.967Z,57.01
2018-02-23T00:44:00.938Z,57.01
2018-02-23T00:45:00.972Z,56.92
2018-02-23T00:46:00.887Z,57.01
2018-02-23T00:47:00.861Z,56.73
2018-02-23T00:48:00.830Z,56.92
2018-02-23T00:49:00.802Z,57.11
2018-02-23T00:50:00.773Z,56.73
2018-02-23T00:51:00.745Z,57.39
2018-02-23T00:52:00.723Z,57.87
2018-02-23T00:53:00.694Z,57.49
2018-02-23T00:54:00.663Z,57.68
2018-02-23T00:55:00.636Z,57.77
2018-02-23T00:56:00.605Z,58.25
2018-02-23T00:57:00.581Z,57.68
2018-02-23T00:58:00.560Z,58.06
2018-02-23T00:59:00.522Z,57.68
2018-02-23T01:00:00.505Z,57.96
2018-02-23T01:01:00.509Z,57.58
2018-02-23T01:02:00.439Z,57.11
2018-02-23T01:03:00.410Z,57.11
2018-02-23T01:04:00.385Z,57.39
2018-02-23T01:05:00.359Z,57.20
2018-02-23T01:06:00.327Z,57.77
2018-02-23T01:07:00.300Z,57.87
2018-02-23T01:08:00.277Z,57.96
2018-02-23T01:09:00.247Z,57.77
2018-02-23T01:10:00.217Z,58.15
2018-02-23T01:11:00.197Z,57.96
2018-02-23T01:12:00.164Z,58.06
2018-02-23T01:13:00.133Z,58.06
2018-02-23T01:14:00.104Z,58.25
2018-02-23T01:15:00.088Z,58.25
2018-02-23T01:16:00.048Z,58.25
2018-02-23T01:17:00.027Z,58.53
2018-02-23T01:17:59.998Z,58.25
2018-02-23T01:18:59.964Z,57.77
2018-02-23T01:19:59.942Z,57.96
2018-02-23T01:20:59.914Z,58.34
2018-02-23T01:21:59.884Z,58.15
2018-02-23T01:22:59.855Z,57.96
2018-02-23T01:23:59.836Z,57.87
2018-02-23T01:24:59.804Z,57.96
2018-02-23T01:25:59.769Z,57.87
2018-02-23T01:26:59.762Z,57.87
2018-02-23T01:27:59.719Z,57.77
2018-02-23T01:28:59.687Z,58.25
2018-02-23T01:29:59.661Z,58.44
2018-02-23T01:30:59.633Z,58.25
2018-02-23T01:31:59.608Z,58.81
2018-02-23T01:32:59.589Z,58.62
2018-02-23T01:33:59.553Z,58.34
2018-02-23T01:34:59.525Z,58.34
2018-02-23T01:35:59.524Z,58.44
2018-02-23T01:36:59.465Z,58.44
2018-02-23T01:37:59.477Z,58.81
2018-02-23T01:38:59.407Z,58.53
2018-02-23T01:39:59.377Z,58.72
2018-02-23T01:40:59.352Z,58.25
2018-02-23T01:41:59.326Z,58.53
2018-02-23T01:42:59.315Z,58.34
2018-02-23T01:43:59.270Z,58.34
2018-02-23T01:44:59.239Z,59.00
2018-02-23T01:45:59.209Z,59.09
2018-02-23T01:46:59.186Z,58.69
2018-02-23T01:47:59.162Z,58.81
2018-02-23T01:48:59.127Z,58.69
2018-02-23T01:49:59.099Z,58.87
2018-02-23T01:50:59.070Z,59.09
2018-02-23T01:51:59.046Z,59.38
2018-02-23T01:52:59.014Z,59.57
2018-02-23T01:53:58.988Z,59.38
2018-02-23T01:54:58.960Z,60.23
2018-02-23T01:55:58.936Z,59.38
2018-02-23T01:56:58.905Z,59.85
2018-02-23T01:57:58.877Z,59.76
2018-02-23T01:58:58.853Z,60.04
2018-02-23T01:59:58.820Z,59.66
2018-02-23T02:00:58.797Z,59.57
2018-02-23T02:01:58.769Z,59.66
2018-02-23T02:02:58.734Z,59.85
2018-02-23T02:03:58.707Z,59.73
2018-02-23T02:04:58.693Z,59.47
2018-02-23T02:05:58.650Z,59.47
2018-02-23T02:06:58.622Z,59.95
2018-02-23T02:07:58.598Z,59.85
2018-02-23T02:08:58.566Z,60.20
2018-02-23T02:09:58.536Z,60.58
2018-02-23T02:10:58.508Z,60.39
2018-02-23T02:11:58.487Z,60.01
2018-02-23T02:12:58.455Z,60.01
2018-02-23T02:13:58.436Z,60.70
2018-02-23T02:14:58.408Z,60.20
2018-02-23T02:15:58.370Z,60.23
2018-02-23T02:16:58.341Z,60.49
2018-02-23T02:17:58.313Z,60.49
2018-02-23T02:18:58.285Z,60.30
2018-02-23T02:19:58.256Z,60.11
2018-02-23T02:20:58.232Z,60.52
2018-02-23T02:21:58.204Z,60.39
2018-02-23T02:22:58.173Z,60.30
2018-02-23T02:23:58.144Z,60.77
2018-02-23T02:24:58.119Z,60.23
2018-02-23T02:25:58.088Z,60.42
2018-02-23T02:26:58.062Z,60.70
2018-02-23T02:27:58.042Z,60.11
2018-02-23T02:28:58.011Z,60.30
2018-02-23T02:29:57.982Z,60.49
2018-02-23T02:30:57.958Z,60.39
2018-02-23T02:31:57.922Z,60.11
2018-02-23T02:32:57.892Z,60.39
2018-02-23T02:34:04.601Z,60.49
2018-02-23T02:34:57.836Z,60.67
2018-02-23T02:35:57.821Z,60.14
2018-02-23T02:36:57.785Z,60.77
2018-02-23T02:37:57.801Z,60.49
2018-02-23T02:38:57.725Z,60.39
2018-02-23T02:39:57.694Z,60.30
2018-02-23T02:40:57.666Z,60.42
2018-02-23T02:41:57.644Z,60.58
2018-02-23T02:42:57.613Z,60.11
2018-02-23T02:43:57.585Z,60.20
2018-02-23T02:44:57.553Z,60.77
2018-02-23T02:45:57.524Z,60.11
2018-02-23T02:46:57.502Z,60.67
2018-02-23T02:47:57.471Z,60.77
2018-02-23T02:48:57.445Z,60.58
2018-02-23T02:49:57.417Z,60.58
2018-02-23T02:50:57.392Z,60.77
2018-02-23T02:51:57.353Z,60.86
2018-02-23T02:52:57.328Z,60.67
2018-02-23T02:53:57.305Z,60.86
2018-02-23T02:54:57.277Z,60.67
2018-02-23T02:55:57.246Z,60.77
2018-02-23T02:56:57.282Z,60.67
2018-02-23T02:57:57.186Z,60.67
2018-02-23T02:58:57.161Z,60.96
2018-02-23T02:59:57.141Z,61.24
2018-02-23T03:00:57.102Z,61.33
2018-02-23T03:01:57.075Z,61.33
2018-02-23T03:02:57.046Z,61.33
2018-02-23T03:03:57.017Z,61.24
2018-02-23T03:04:56.988Z,61.43
2018-02-23T03:05:56.971Z,61.24
2018-02-23T03:06:56.941Z,61.61
2018-02-23T03:07:56.904Z,61.61
2018-02-23T03:08:56.901Z,61.99
2018-02-23T03:09:56.888Z,62.18
2018-02-23T03:10:56.826Z,62.09
2018-02-23T03:11:56.801Z,62.37
2018-02-23T03:12:56.765Z,62.37
2018-02-23T03:13:57.701Z,61.99
2018-02-23T03:14:56.707Z,61.99
2018-02-23T03:15:56.682Z,62.09
2018-02-23T03:16:56.661Z,62.09
2018-02-23T03:17:56.621Z,62.37
2018-02-23T03:18:56.605Z,62.18
2018-02-23T03:19:56.587Z,62.28
2018-02-23T03:20:56.536Z,62.09
2018-02-23T03:21:56.520Z,61.99
2018-02-23T03:22:56.484Z,62.09
2018-02-23T03:23:56.453Z,61.99
2018-02-23T03:24:56.436Z,62.18
2018-02-23T03:25:56.404Z,62.28
2018-02-23T03:26:56.366Z,62.09
2018-02-23T03:27:56.339Z,62.28
2018-02-23T03:28:56.311Z,62.18
2018-02-23T03:29:56.283Z,62.18
2018-02-23T03:30:56.257Z,62.37
2018-02-23T03:31:56.228Z,62.37
2018-02-23T03:32:56.200Z,62.28
2018-02-23T03:33:56.169Z,62.56
2018-02-23T03:34:56.146Z,63.04
2018-02-23T03:35:56.112Z,62.94
2018-02-23T03:36:56.083Z,62.75
2018-02-23T03:37:56.059Z,62.85
2018-02-23T03:38:56.028Z,63.23
2018-02-23T03:39:55.999Z,62.94
2018-02-23T03:40:55.975Z,63.04
2018-02-23T03:41:55.975Z,62.85
2018-02-23T03:42:55.916Z,63.32
2018-02-23T03:43:55.959Z,63.04
2018-02-23T03:44:55.859Z,63.13
2018-02-23T03:45:55.840Z,62.94
2018-02-23T03:46:55.801Z,63.32
2018-02-23T03:47:55.772Z,62.94
2018-02-23T03:48:55.743Z,63.23
2018-02-23T03:49:55.716Z,63.23
2018-02-23T03:50:55.695Z,63.04
2018-02-23T03:51:55.657Z,63.23
2018-02-23T03:52:55.632Z,63.13
2018-02-23T03:53:55.602Z,63.70
2018-02-23T03:54:55.575Z,63.51
2018-02-23T03:55:55.555Z,63.42
2018-02-23T03:56:55.522Z,64.17
2018-02-23T03:57:55.487Z,63.70
2018-02-23T03:58:55.461Z,64.07
2018-02-23T03:59:55.433Z,64.17
2018-02-23T04:00:55.400Z,64.36
2018-02-23T04:01:55.373Z,63.98
2018-02-23T04:02:55.347Z,64.26
2018-02-23T04:03:55.315Z,64.17
2018-02-23T04:04:55.291Z,63.89
2018-02-23T04:05:55.263Z,63.60
2018-02-23T04:06:55.234Z,63.89
2018-02-23T04:07:55.204Z,64.07
2018-02-23T04:08:55.186Z,63.89
2018-02-23T04:09:55.151Z,64.07
2018-02-23T04:10:55.121Z,64.17
2018-02-23T04:11:55.114Z,64.17
2018-02-23T04:12:55.070Z,64.45
2018-02-23T04:13:55.084Z,64.64
2018-02-23T04:14:55.002Z,64.73
2018-02-23T04:15:54.981Z,64.54
2018-02-23T04:16:54.946Z,64.32
2018-02-23T04:17:54.921Z,64.54
2018-02-23T04:18:54.894Z,64.64
2018-02-23T04:19:54.864Z,64.83
2018-02-23T04:20:54.835Z,64.64
2018-02-23T04:21:54.805Z,65.11
2018-02-23T04:22:54.776Z,64.51
2018-02-23T04:23:54.749Z,64.92
2018-02-23T04:24:54.720Z,64.79
2018-02-23T04:25:54.710Z,64.73
2018-02-23T04:26:54.662Z,64.70
2018-02-23T04:27:54.638Z,64.54
2018-02-23T04:28:54.616Z,64.64
2018-02-23T04:29:54.580Z,65.46
2018-02-23T04:30:54.554Z,64.92
2018-02-23T04:31:54.533Z,65.11
2018-02-23T04:32:54.495Z,65.30
2018-02-23T04:33:54.467Z,65.11
2018-02-23T04:35:01.109Z,64.98
2018-02-23T04:35:54.418Z,65.11
2018-02-23T04:36:54.376Z,64.73
2018-02-23T04:37:54.367Z,64.83
2018-02-23T04:38:54.322Z,64.45
2018-02-23T04:39:54.295Z,64.26
2018-02-23T04:40:54.264Z,64.07
2018-02-23T04:41:54.235Z,64.54
2018-02-23T04:42:54.209Z,64.73
2018-02-23T04:43:54.181Z,64.73
2018-02-23T04:44:54.150Z,64.36
2018-02-23T04:45:54.157Z,64.32
2018-02-23T04:46:54.092Z,64.64
2018-02-23T04:47:54.068Z,64.36
2018-02-23T04:48:54.038Z,64.36
2018-02-23T04:49:54.009Z,64.26
2018-02-23T04:50:53.984Z,64.61
2018-02-23T04:51:53.949Z,65.21
2018-02-23T04:52:53.922Z,64.92
2018-02-23T04:53:53.894Z,65.17
2018-02-23T04:54:53.865Z,64.32
2018-02-23T04:55:53.841Z,64.32
2018-02-23T04:56:53.807Z,64.36
2018-02-23T04:57:53.784Z,64.32
2018-02-23T04:58:53.751Z,64.92
2018-02-23T04:59:53.720Z,65.08
2018-02-23T05:00:53.698Z,64.61
2018-02-23T05:01:53.671Z,64.61
2018-02-23T05:02:53.641Z,64.89
2018-02-23T05:03:53.617Z,64.98
2018-02-23T05:04:53.581Z,64.98
2018-02-23T05:05:53.555Z,64.98
2018-02-23T05:06:53.524Z,65.08
2018-02-23T05:07:53.493Z,64.51
2018-02-23T05:08:53.466Z,64.14
2018-02-23T05:09:53.435Z,64.14
2018-02-23T05:10:53.413Z,64.32
2018-02-23T05:11:53.377Z,64.51
2018-02-23T05:12:53.356Z,64.23
2018-02-23T05:13:53.317Z,64.61
2018-02-23T05:14:53.292Z,64.89
2018-02-23T05:15:53.299Z,64.98
2018-02-23T05:16:53.255Z,63.95
2018-02-23T05:17:53.276Z,64.14
2018-02-23T05:18:53.192Z,64.14
2018-02-23T05:19:53.146Z,64.14
2018-02-23T05:20:53.121Z,64.42
2018-02-23T05:21:53.091Z,64.42
2018-02-23T05:22:53.063Z,64.79
2018-02-23T05:23:53.031Z,64.51
2018-02-23T05:24:53.010Z,64.70
2018-02-23T05:25:52.979Z,64.70
2018-02-23T05:26:52.947Z,65.27
2018-02-23T05:27:52.919Z,64.89
2018-02-23T05:28:52.905Z,64.51
2018-02-23T05:29:52.861Z,64.89
2018-02-23T05:30:52.840Z,64.61
2018-02-23T05:31:52.817Z,64.32
2018-02-23T05:32:52.777Z,64.61
2018-02-23T05:33:52.749Z,64.32
2018-02-23T05:34:52.718Z,64.42
2018-02-23T05:35:52.697Z,64.32
2018-02-23T05:36:52.665Z,64.32
2018-02-23T05:37:52.633Z,64.32
2018-02-23T05:38:52.603Z,64.42
2018-02-23T05:39:52.577Z,64.14
2018-02-23T05:40:52.546Z,64.79
2018-02-23T05:41:52.521Z,64.70
2018-02-23T05:42:52.487Z,64.70
2018-02-23T05:43:52.459Z,64.70
2018-02-23T05:44:52.433Z,64.70
2018-02-23T05:45:52.403Z,64.70
2018-02-23T05:46:52.380Z,65.08
2018-02-23T05:47:52.347Z,65.55
2018-02-23T05:48:52.350Z,64.98
2018-02-23T05:49:52.333Z,65.08
2018-02-23T05:50:52.258Z,65.46
2018-02-23T05:51:52.245Z,65.93
2018-02-23T05:52:52.200Z,65.36
2018-02-23T05:53:52.169Z,65.74
2018-02-23T05:54:52.149Z,65.55
2018-02-23T05:55:52.113Z,65.36
2018-02-23T05:56:52.084Z,65.46
2018-02-23T05:57:52.059Z,65.65
2018-02-23T05:58:52.038Z,65.27
2018-02-23T05:59:51.997Z,65.46
2018-02-23T06:00:51.968Z,65.36
2018-02-23T06:01:51.939Z,65.65
2018-02-23T06:02:51.916Z,65.74
2018-02-23T06:03:51.882Z,65.46
2018-02-23T06:04:51.874Z,65.65
2018-02-23T06:05:51.825Z,65.17
2018-02-23T06:06:51.795Z,65.93
2018-02-23T06:07:51.768Z,65.55
2018-02-23T06:08:51.746Z,65.46
2018-02-23T06:09:51.713Z,65.27
2018-02-23T06:10:51.684Z,65.17
2018-02-23T06:11:51.653Z,65.08
2018-02-23T06:12:51.622Z,65.17
2018-02-23T06:13:51.594Z,65.08
2018-02-23T06:14:51.568Z,65.08
2018-02-23T06:15:51.536Z,65.08
2018-02-23T06:16:51.508Z,65.08
2018-02-23T06:17:51.479Z,65.17
2018-02-23T06:18:51.454Z,65.17
2018-02-23T06:19:51.468Z,65.55
2018-02-23T06:20:51.446Z,65.08
2018-02-23T06:21:51.384Z,65.36
2018-02-23T06:22:51.338Z,65.46
2018-02-23T06:23:51.313Z,65.36
2018-02-23T06:24:51.279Z,65.74
2018-02-23T06:25:51.250Z,65.55
2018-02-23T06:26:51.221Z,65.55
2018-02-23T06:27:51.194Z,65.46
2018-02-23T06:28:51.166Z,65.46
2018-02-23T06:29:51.136Z,65.65
2018-02-23T06:30:51.126Z,65.93
2018-02-23T06:31:51.073Z,65.74
2018-02-23T06:32:51.050Z,65.93
2018-02-23T06:33:51.019Z,66.03
2018-02-23T06:34:50.996Z,65.93
2018-02-23T06:35:50.965Z,66.69
2018-02-23T06:36:50.936Z,66.41
2018-02-23T06:37:50.900Z,66.41
2018-02-23T06:38:50.886Z,67.16
2018-02-23T06:39:50.843Z,66.69
2018-02-23T06:40:50.817Z,67.25
2018-02-23T06:41:50.790Z,67.44
2018-02-23T06:42:50.756Z,66.78
2018-02-23T06:43:50.731Z,66.59
2018-02-23T06:44:50.704Z,66.31
2018-02-23T06:45:50.672Z,65.93
2018-02-23T06:46:50.649Z,66.03
2018-02-23T06:47:50.612Z,66.12
2018-02-23T06:48:50.585Z,65.74
2018-02-23T06:49:50.552Z,66.03
2018-02-23T06:50:50.531Z,66.12
2018-02-23T06:51:50.509Z,66.22
2018-02-23T06:52:50.466Z,65.93
2018-02-23T06:53:50.462Z,66.22
2018-02-23T06:54:50.412Z,66.12
2018-02-23T06:55:50.381Z,65.93
2018-02-23T06:56:50.350Z,66.22
2018-02-23T06:57:50.324Z,66.22
2018-02-23T06:58:50.291Z,65.93
2018-02-23T06:59:50.265Z,65.55
2018-02-23T07:00:50.235Z,65.08
2018-02-23T07:01:50.216Z,65.65
2018-02-23T07:02:50.179Z,65.17
2018-02-23T07:03:50.171Z,65.08
2018-02-23T07:04:50.134Z,65.17
2018-02-23T07:05:50.665Z,65.08
2018-02-23T07:06:50.064Z,65.46
2018-02-23T07:07:50.046Z,64.98
2018-02-23T07:08:50.008Z,64.79
2018-02-23T07:09:49.975Z,64.45
2018-02-23T07:10:49.977Z,64.36
2018-02-23T07:11:49.919Z,64.54
2018-02-23T07:12:49.905Z,64.54
2018-02-23T07:13:49.862Z,64.36
2018-02-23T07:14:49.850Z,64.92
2018-02-23T07:15:49.809Z,63.98
2018-02-23T07:16:49.777Z,63.89
2018-02-23T07:17:49.752Z,63.70
2018-02-23T07:18:49.717Z,63.04
2018-02-23T07:19:49.692Z,63.70
2018-02-23T07:20:49.659Z,63.60
2018-02-23T07:21:49.665Z,63.42
2018-02-23T07:22:49.617Z,63.23
2018-02-23T07:23:49.606Z,62.75
2018-02-23T07:24:49.549Z,62.85
2018-02-23T07:25:49.522Z,63.70
2018-02-23T07:26:49.492Z,62.66
2018-02-23T07:27:49.467Z,63.04
2018-02-23T07:28:49.432Z,62.09
2018-02-23T07:29:49.405Z,61.99
2018-02-23T07:30:49.377Z,61.15
2018-02-23T07:31:49.351Z,61.05
2018-02-23T07:32:49.319Z,61.15
2018-02-23T07:33:49.296Z,61.24
2018-02-23T07:34:49.264Z,61.61
2018-02-23T07:35:49.236Z,61.24
2018-02-23T07:36:49.217Z,60.67
2018-02-23T07:37:49.204Z,60.86
2018-02-23T07:38:49.162Z,60.77
2018-02-23T07:39:49.128Z,60.58
2018-02-23T07:40:49.092Z,60.39
2018-02-23T07:41:49.068Z,60.30
2018-02-23T07:42:49.046Z,60.14
2018-02-23T07:43:49.010Z,59.76
2018-02-23T07:44:48.986Z,59.85
2018-02-23T07:45:48.955Z,59.66
2018-02-23T07:46:48.929Z,60.14
2018-02-23T07:47:48.897Z,61.27
2018-02-23T07:48:48.874Z,61.46
2018-02-23T07:49:48.848Z,61.46
2018-02-23T07:50:48.815Z,61.55
2018-02-23T07:51:48.782Z,61.27
2018-02-23T07:52:48.757Z,61.55
2018-02-23T07:53:48.757Z,60.70
2018-02-23T07:54:48.726Z,59.85
2018-02-23T07:55:48.708Z,60.07
2018-02-23T07:56:48.652Z,60.17
2018-02-23T07:57:48.619Z,59.50
2018-02-23T07:58:48.598Z,59.22
2018-02-23T07:59:48.565Z,58.65
2018-02-23T08:00:48.532Z,58.18
2018-02-23T08:01:48.510Z,58.37
2018-02-23T08:02:48.485Z,57.99
2018-02-23T08:03:48.449Z,58.56
2018-02-23T08:04:48.430Z,57.90
2018-02-23T08:05:48.394Z,58.09
2018-02-23T08:06:48.367Z,57.99
2018-02-23T08:07:48.340Z,57.80
2018-02-23T08:08:48.316Z,56.95
2018-02-23T08:09:48.283Z,57.52
2018-02-23T08:10:48.257Z,56.76
2018-02-23T08:11:48.232Z,56.76
2018-02-23T08:12:48.204Z,56.48
2018-02-23T08:13:48.177Z,56.95
2018-02-23T08:14:48.149Z,56.57
2018-02-23T08:15:48.120Z,56.20
2018-02-23T08:16:48.093Z,56.01
2018-02-23T08:17:48.083Z,55.44
2018-02-23T08:18:48.039Z,55.65
2018-02-23T08:19:48.013Z,55.84
2018-02-23T08:20:47.983Z,55.46
2018-02-23T08:21:47.956Z,55.56
2018-02-23T08:22:47.929Z,55.27
2018-02-23T08:23:47.898Z,55.94
2018-02-23T08:24:47.876Z,55.46
2018-02-23T08:25:47.844Z,55.75
2018-02-23T08:26:47.867Z,55.37
2018-02-23T08:27:47.806Z,55.18
2018-02-23T08:28:47.802Z,54.90
2018-02-23T08:29:47.736Z,54.61
2018-02-23T08:30:47.709Z,54.42
2018-02-23T08:31:47.680Z,54.33
2018-02-23T08:32:47.654Z,54.14
2018-02-23T08:33:47.626Z,54.42
2018-02-23T08:34:47.601Z,53.76
2018-02-23T08:35:47.568Z,54.23
2018-02-23T08:36:47.548Z,53.57
2018-02-23T08:37:47.523Z,53.83
2018-02-23T08:38:47.541Z,53.74
2018-02-23T08:39:47.534Z,53.83
2018-02-23T08:40:47.435Z,54.49
2018-02-23T08:41:47.406Z,54.49
2018-02-23T08:42:47.382Z,53.74
2018-02-23T08:43:47.354Z,53.74
2018-02-23T08:44:47.324Z,54.68
2018-02-23T08:45:47.310Z,53.92
2018-02-23T08:46:47.275Z,54.30
2018-02-23T08:47:47.242Z,54.11
2018-02-23T08:48:47.225Z,53.55
2018-02-23T08:49:47.194Z,53.26
2018-02-23T08:50:47.163Z,53.83
2018-02-23T08:51:47.138Z,53.74
2018-02-23T08:52:47.107Z,53.36
2018-02-23T08:53:47.089Z,54.58
2018-02-23T08:54:47.057Z,53.92
2018-02-23T08:55:47.052Z,53.83
2018-02-23T08:56:46.997Z,53.07
2018-02-23T08:57:46.974Z,53.26
2018-02-23T08:58:46.947Z,53.36
2018-02-23T08:59:46.916Z,53.36
2018-02-23T09:00:46.901Z,53.64
2018-02-23T09:01:46.906Z,52.98
2018-02-23T09:02:46.835Z,52.98
2018-02-23T09:03:46.820Z,52.91
2018-02-23T09:04:46.793Z,52.91
2018-02-23T09:05:46.752Z,52.62
2018-02-23T09:06:46.733Z,52.62
2018-02-23T09:07:46.707Z,52.72
2018-02-23T09:08:46.673Z,52.53
2018-02-23T09:09:46.650Z,51.96
2018-02-23T09:10:46.624Z,51.20
2018-02-23T09:11:46.638Z,51.68
2018-02-23T09:12:46.565Z,51.39
2018-02-23T09:13:46.546Z,51.18
2018-02-23T09:14:46.509Z,51.56
2018-02-23T09:15:46.488Z,51.37
2018-02-23T09:16:46.459Z,51.65
2018-02-23T09:17:46.426Z,52.69
2018-02-23T09:18:46.422Z,52.12
2018-02-23T09:19:46.382Z,52.31
2018-02-23T09:20:46.345Z,52.88
2018-02-23T09:21:46.331Z,52.31
2018-02-23T09:22:46.298Z,52.31
2018-02-23T09:23:46.270Z,51.93
2018-02-23T09:24:46.245Z,51.75
2018-02-23T09:25:46.219Z,52.31
2018-02-23T09:26:46.184Z,52.69
2018-02-23T09:27:46.161Z,52.25
2018-02-23T09:28:46.137Z,51.87
2018-02-23T09:29:46.104Z,51.39
2018-02-23T09:30:46.077Z,51.39
2018-02-23T09:31:46.060Z,51.11
2018-02-23T09:32:46.021Z,50.82
2018-02-23T09:33:46.033Z,50.82
2018-02-23T09:34:45.995Z,50.45
2018-02-23T09:35:45.938Z,49.88
2018-02-23T09:36:45.918Z,49.88
2018-02-23T09:37:45.892Z,49.31
2018-02-23T09:38:45.865Z,48.74
2018-02-23T09:39:45.834Z,48.46
2018-02-23T09:40:45.803Z,48.27
2018-02-23T09:41:45.773Z,48.10
2018-02-23T09:42:45.755Z,48.58
2018-02-23T09:43:45.730Z,48.08
2018-02-23T09:44:45.697Z,48.18
2018-02-23T09:45:45.680Z,48.27
2018-02-23T09:46:45.643Z,48.27
2018-02-23T09:47:45.610Z,48.08
2018-02-23T09:48:45.630Z,48.46
2018-02-23T09:49:45.562Z,48.93
2018-02-23T09:50:45.533Z,48.84
2018-02-23T09:51:45.504Z,49.41
2018-02-23T09:52:45.487Z,48.84
2018-02-23T09:53:45.452Z,48.84
2018-02-23T09:54:45.425Z,49.60
2018-02-23T09:55:45.406Z,49.31
2018-02-23T09:56:45.369Z,49.31
2018-02-23T09:57:45.345Z,49.50
2018-02-23T09:58:45.330Z,49.41
2018-02-23T09:59:45.290Z,49.31
2018-02-23T10:00:45.265Z,49.31
2018-02-23T10:01:45.398Z,49.50
2018-02-23T10:02:45.212Z,50.73
2018-02-23T10:03:45.184Z,50.16
2018-02-23T10:04:45.158Z,50.35
2018-02-23T10:05:45.146Z,51.20
2018-02-23T10:06:45.099Z,50.45
2018-02-23T10:07:45.076Z,50.54
2018-02-23T10:08:45.084Z,50.92
2018-02-23T10:09:45.016Z,50.35
2018-02-23T10:10:45.001Z,50.26
2018-02-23T10:11:44.962Z,50.63
2018-02-23T10:12:44.938Z,49.98
2018-02-23T10:13:44.912Z,49.69
2018-02-23T10:14:44.883Z,49.22
2018-02-23T10:15:44.860Z,49.60
2018-02-23T10:16:44.830Z,49.50
2018-02-23T10:17:44.800Z,49.41
2018-02-23T10:18:44.775Z,48.74
2018-02-23T10:19:44.757Z,49.41
2018-02-23T10:20:44.716Z,48.65
2018-02-23T10:21:44.696Z,48.36
2018-02-23T10:22:44.675Z,48.46
2018-02-23T10:23:44.637Z,48.08
2018-02-23T10:24:44.613Z,48.18
2018-02-23T10:25:44.608Z,48.08
2018-02-23T10:26:44.557Z,48.36
2018-02-23T10:27:44.533Z,47.70
2018-02-23T10:28:44.503Z,47.61
2018-02-23T10:29:44.476Z,48.18
2018-02-23T10:30:44.454Z,48.08
2018-02-23T10:31:44.430Z,47.80
2018-02-23T10:32:44.438Z,47.51
2018-02-23T10:33:44.372Z,47.99
2018-02-23T10:34:44.344Z,46.85
2018-02-23T10:35:44.322Z,46.66
2018-02-23T10:36:44.284Z,46.66
2018-02-23T10:37:45.205Z,46.66
2018-02-23T10:38:44.244Z,46.75
2018-02-23T10:39:44.204Z,46.75
2018-02-23T10:40:44.174Z,46.66
2018-02-23T10:41:44.150Z,46.66
2018-02-23T10:42:44.174Z,46.97
2018-02-23T10:43:44.093Z,46.97
2018-02-23T10:44:44.072Z,46.78
2018-02-23T10:45:44.050Z,46.59
2018-02-23T10:46:44.021Z,46.69
2018-02-23T10:47:43.992Z,46.40
2018-02-23T10:48:43.977Z,46.50
2018-02-23T10:49:43.951Z,45.45
2018-02-23T10:50:43.907Z,46.50
2018-02-23T10:51:43.903Z,45.64
2018-02-23T10:52:43.873Z,45.76
2018-02-23T10:53:43.828Z,46.23
2018-02-23T10:54:43.808Z,46.14
2018-02-23T10:55:43.785Z,46.71
2018-02-23T10:56:43.748Z,46.71
2018-02-23T10:57:43.737Z,46.23
2018-02-23T10:58:43.721Z,46.23
2018-02-23T10:59:43.668Z,45.95
2018-02-23T11:00:43.640Z,45.00
2018-02-23T11:01:43.622Z,45.10
2018-02-23T11:02:43.597Z,44.91
2018-02-23T11:03:43.568Z,45.48
2018-02-23T11:04:43.540Z,45.38
2018-02-23T11:05:43.516Z,44.91
2018-02-23T11:06:43.485Z,44.81
2018-02-23T11:07:43.459Z,44.62
2018-02-23T11:08:43.428Z,43.98
2018-02-23T11:09:43.403Z,43.79
2018-02-23T11:10:43.381Z,43.13
2018-02-23T11:11:43.360Z,42.92
2018-02-23T11:12:43.323Z,42.27
2018-02-23T11:13:43.302Z,42.16
2018-02-23T11:14:43.275Z,41.21
2018-02-23T11:15:43.262Z,41.24
2018-02-23T11:16:43.221Z,41.05
2018-02-23T11:17:43.194Z,40.85
2018-02-23T11:18:43.170Z,40.76
2018-02-23T11:19:43.138Z,41.05
2018-02-23T11:20:43.115Z,40.85
2018-02-23T11:21:43.125Z,41.05
2018-02-23T11:22:43.067Z,40.57
2018-02-23T11:23:43.034Z,40.09
2018-02-23T11:24:43.010Z,40.47
2018-02-23T11:25:42.988Z,40.76
2018-02-23T11:26:42.961Z,40.57
2018-02-23T11:27:42.929Z,41.05
2018-02-23T11:28:42.904Z,41.05
2018-02-23T11:29:42.879Z,40.95
2018-02-23T11:30:42.857Z,41.06
2018-02-23T11:31:42.834Z,40.69
2018-02-23T11:32:42.802Z,40.57
2018-02-23T11:33:42.784Z,39.90
2018-02-23T11:34:42.748Z,39.90
2018-02-23T11:35:42.729Z,39.81
2018-02-23T11:36:42.721Z,42.08
2018-02-23T11:37:42.672Z,43.91
2018-02-23T11:38:42.656Z,45.52
2018-02-23T11:39:42.632Z,46.00
2018-02-23T11:40:42.597Z,45.43
2018-02-23T11:41:42.576Z,46.00
2018-02-23T11:42:42.558Z,45.81
2018-02-23T11:43:42.521Z,45.81
2018-02-23T11:44:42.500Z,44.76
2018-02-23T11:45:42.474Z,44.50
2018-02-23T11:46:42.444Z,43.93
2018-02-23T11:47:42.423Z,43.55
2018-02-23T11:48:42.394Z,43.46
2018-02-23T11:49:42.365Z,42.98
2018-02-23T11:50:42.376Z,43.27
2018-02-23T11:51:42.313Z,43.08
2018-02-23T11:52:42.284Z,43.34
2018-02-23T11:53:42.260Z,43.55
2018-02-23T11:54:42.234Z,43.93
2018-02-23T11:55:42.257Z,43.84
2018-02-23T11:56:42.206Z,43.65
2018-02-23T11:57:42.198Z,43.65
2018-02-23T11:58:42.132Z,41.94
2018-02-23T11:59:42.107Z,41.08
2018-02-23T12:00:42.080Z,40.89
2018-02-23T12:01:42.057Z,41.08
2018-02-23T12:02:42.027Z,40.99
2018-02-23T12:03:42.002Z,40.89
2018-02-23T12:04:41.983Z,40.80
2018-02-23T12:05:41.960Z,40.80
2018-02-23T12:06:41.937Z,40.42
2018-02-23T12:07:41.909Z,40.52
2018-02-23T12:08:41.878Z,40.89
2018-02-23T12:09:41.849Z,40.99
2018-02-23T12:10:41.826Z,40.99
2018-02-23T12:11:41.804Z,39.95
2018-02-23T12:12:41.779Z,39.95
2018-02-23T12:13:41.750Z,39.57
2018-02-23T12:14:41.727Z,39.37
2018-02-23T12:15:41.698Z,39.18
2018-02-23T12:16:41.670Z,38.90
2018-02-23T12:17:41.647Z,38.90
2018-02-23T12:18:41.624Z,39.09
2018-02-23T12:19:41.595Z,39.18
2018-02-23T12:20:41.585Z,39.18
2018-02-23T12:21:41.549Z,39.11
2018-02-23T12:22:41.525Z,39.09
2018-02-23T12:23:41.495Z,38.53
2018-02-23T12:24:41.495Z,38.81
2018-02-23T12:25:41.463Z,39.09
2018-02-23T12:26:41.420Z,39.57
2018-02-23T12:27:41.396Z,39.66
2018-02-23T12:28:41.370Z,39.57
2018-02-23T12:29:41.345Z,39.09
2018-02-23T12:30:41.316Z,39.28
2018-02-23T12:31:41.301Z,39.47
2018-02-23T12:32:41.268Z,38.35
2018-02-23T12:33:41.243Z,39.01
2018-02-23T12:34:41.227Z,39.11
2018-02-23T12:35:41.190Z,39.01
2018-02-23T12:36:41.171Z,38.92
2018-02-23T12:37:41.141Z,38.45
2018-02-23T12:40:13.204Z,38.16
2018-02-23T12:41:13.151Z,37.78
2018-02-23T12:43:06.507Z,37.50
2018-02-23T12:44:06.457Z,37.88
2018-02-23T12:45:59.812Z,36.65
2018-02-23T12:46:59.770Z,37.02
2018-02-23T12:48:53.150Z,36.83
2018-02-23T12:49:53.093Z,37.02
2018-02-23T12:51:46.462Z,37.40
2018-02-23T12:52:46.397Z,36.74
2018-02-23T12:54:42.266Z,36.63
2018-02-23T12:55:42.241Z,36.91
2018-02-23T12:57:36.434Z,37.86
2018-02-23T12:58:36.385Z,37.76